Time;durP1;ratioP1;P1;durP2;ratioP2;P2;SDS_P1;SDS_P2;PMS_P1;PMS_P2;Temp;Humidity;BMP_temperature;BMP_pressure;BME280_temperature;BME280_humidity;BME280_pressure;Samples;Min_cycle;Max_cycle;Signal;HPM_P1;HPM_P2
2021/06/22 00:00:55;;;;;;;;;1.00;1.00;;;;;23.40;46.40;100467.47;5075862;27;45267;-55
2021/06/22 00:03:20;;;;;;;;;1.75;1.75;;;;;23.40;46.14;100470.09;5076333;27;57984;-63
2021/06/22 00:05:46;;;;;;;;;2.50;2.00;;;;;23.38;46.49;100481.72;5078872;27;49553;-64
2021/06/22 00:08:11;;;;;;;;;1.75;0.25;;;;;23.28;46.48;100471.00;5078867;27;45424;-58
2021/06/22 00:10:37;;;;;;;;;1.75;1.75;;;;;23.30;46.55;100477.84;5078200;27;62356;-57
2021/06/22 00:13:02;;;;;;;;;2.25;2.00;;;;;23.36;46.85;100476.56;5078539;27;55390;-63
2021/06/22 00:15:28;;;;;;;;;1.25;1.25;;;;;23.38;46.64;100474.66;5078253;27;45422;-63
2021/06/22 00:17:53;;;;;;;;;1.50;1.50;;;;;23.43;46.52;100487.53;5078664;27;46276;-61
2021/06/22 00:20:19;;;;;;;;;2.50;2.00;;;;;23.38;46.41;100484.38;5078791;27;45321;-53
2021/06/22 00:22:45;;;;;;;;;2.00;1.50;;;;;23.32;46.62;100475.09;5077646;27;45462;-61
2021/06/22 00:25:12;;;;;;;;;2.00;2.00;;;;;23.31;46.56;100478.72;5079024;27;45290;-60
2021/06/22 00:27:38;;;;;;;;;1.50;1.50;;;;;23.35;46.55;100479.31;5078562;28;46424;-64
2021/06/22 00:30:07;;;;;;;;;1.50;1.00;;;;;23.39;46.51;100480.78;5077268;27;45265;-62
2021/06/22 00:32:32;;;;;;;;;2.00;2.00;;;;;23.42;46.43;100481.41;5078601;27;45355;-61
2021/06/22 00:34:58;;;;;;;;;2.00;2.00;;;;;23.45;46.05;100475.03;5078297;27;62246;-59
2021/06/22 00:37:23;;;;;;;;;2.25;1.25;;;;;23.49;46.27;100475.66;5078295;27;51839;-62
2021/06/22 00:39:48;;;;;;;;;2.00;2.00;;;;;23.49;46.21;100475.66;5077467;27;65245;-52
2021/06/22 00:42:14;;;;;;;;;1.75;1.00;;;;;23.51;46.44;100479.03;5078526;27;45797;-62
2021/06/22 00:44:52;;;;;;;;;2.25;2.25;;;;;23.55;46.19;100484.00;5078717;27;45272;-65
2021/06/22 00:47:18;;;;;;;;;1.75;1.75;;;;;23.60;46.42;100483.66;5078460;27;46331;-62
2021/06/22 00:49:43;;;;;;;;;2.00;2.00;;;;;23.64;46.18;100490.41;5078334;27;45335;-53
2021/06/22 00:52:09;;;;;;;;;2.00;2.00;;;;;23.69;46.18;100482.97;5078456;27;45298;-55
2021/06/22 00:54:35;;;;;;;;;3.00;3.00;;;;;23.74;46.41;100483.47;5078801;27;45619;-66
2021/06/22 00:57:00;;;;;;;;;1.00;1.00;;;;;23.78;46.23;100478.78;5078446;27;46084;-66
2021/06/22 00:59:26;;;;;;;;;3.00;2.00;;;;;23.80;46.18;100479.53;5076554;28;58057;-61
2021/06/22 01:01:51;;;;;;;;;1.00;1.00;;;;;23.85;46.14;100484.47;5077863;27;58868;-66
2021/06/22 01:04:16;;;;;;;;;1.25;1.25;;;;;23.86;46.01;100483.50;5077287;28;45472;-61
2021/06/22 01:06:42;;;;;;;;;1.50;1.50;;;;;23.92;46.38;100486.50;5078060;27;45455;-63
2021/06/22 01:09:08;;;;;;;;;3.50;2.00;;;;;23.94;46.10;100481.94;5077407;27;67769;-66
2021/06/22 01:11:33;;;;;;;;;1.75;0.25;;;;;23.98;45.94;100476.47;5077477;27;45462;-64
2021/06/22 01:13:59;;;;;;;;;1.50;1.50;;;;;23.99;46.04;100479.00;5077187;28;45320;-58
2021/06/22 01:16:25;;;;;;;;;1.00;1.00;;;;;24.02;46.50;100478.75;5077952;27;53457;-57
2021/06/22 01:19:00;;;;;;;;;1.00;1.00;;;;;24.04;45.83;100476.84;5078206;27;45270;-59
2021/06/22 01:21:27;;;;;;;;;1.50;1.50;;;;;24.04;45.81;100476.84;5078110;27;45381;-61
2021/06/22 01:23:53;;;;;;;;;1.00;1.00;;;;;24.06;46.02;100469.63;5077188;28;45497;-61
2021/06/22 01:26:18;;;;;;;;;2.75;2.75;;;;;24.08;46.11;100473.00;5077840;27;51871;-59
2021/06/22 01:28:43;;;;;;;;;2.00;2.00;;;;;24.09;45.99;100482.63;5077163;27;68330;-61
2021/06/22 01:31:10;;;;;;;;;1.50;1.50;;;;;24.10;46.23;100467.59;5076452;28;48823;-57
2021/06/22 01:33:35;;;;;;;;;4.50;3.00;;;;;24.11;46.45;100471.06;5059346;28;55336;-54
2021/06/22 01:36:00;;;;;;;;;1.00;1.00;;;;;24.11;46.42;100465.78;5077767;27;46913;-67
2021/06/22 01:38:26;;;;;;;;;2.00;2.00;;;;;24.12;46.16;100452.44;5075281;28;68820;-66
2021/06/22 01:40:51;;;;;;;;;1.50;1.50;;;;;24.14;46.17;100460.25;5077086;27;59223;-66
2021/06/22 01:43:17;;;;;;;;;2.50;2.50;;;;;24.12;46.14;100451.56;5077791;27;45378;-62
2021/06/22 01:45:42;;;;;;;;;2.00;2.00;;;;;24.14;46.70;100455.81;5075755;28;45462;-64
2021/06/22 01:48:07;;;;;;;;;1.75;1.75;;;;;24.14;46.62;100463.75;5077014;27;56075;-66
2021/06/22 01:50:33;;;;;;;;;3.50;2.75;;;;;24.16;46.56;100464.47;5075758;28;65172;-62
2021/06/22 01:52:58;;;;;;;;;4.00;3.00;;;;;24.16;46.39;100459.16;5077643;27;45542;-61
2021/06/22 01:55:40;;;;;;;;;2.75;2.50;;;;;24.17;46.39;100458.22;5075601;28;58356;-67
2021/06/22 01:58:11;;;;;;;;;2.75;2.75;;;;;24.19;46.46;100458.09;5077675;28;46273;-66
2021/06/22 02:00:36;;;;;;;;;3.25;3.25;;;;;24.18;46.59;100454.59;5077602;27;45403;-58
2021/06/22 02:03:02;;;;;;;;;2.75;1.50;;;;;24.20;46.73;100465.06;5076470;28;45620;-66
2021/06/22 02:05:27;;;;;;;;;1.50;1.50;;;;;24.19;46.55;100458.09;5077045;27;49538;-61
2021/06/22 02:07:53;;;;;;;;;3.75;2.25;;;;;24.20;46.53;100454.47;5077055;27;45281;-62
2021/06/22 02:10:18;;;;;;;;;4.75;3.50;;;;;24.22;46.88;100460.50;5077420;27;45393;-65
2021/06/22 02:12:43;;;;;;;;;1.75;1.75;;;;;24.22;46.52;100463.16;5077348;27;45517;-58
2021/06/22 02:15:10;;;;;;;;;2.75;2.75;;;;;24.19;46.91;100471.34;5076347;27;63386;-64
2021/06/22 02:17:35;;;;;;;;;2.00;2.00;;;;;24.23;46.83;100478.94;5076130;28;45304;-66
2021/06/22 02:20:03;;;;;;;;;2.00;2.00;;;;;24.25;46.58;100473.50;5077240;27;45567;-67
2021/06/22 02:22:29;;;;;;;;;3.00;3.00;;;;;24.24;46.61;100471.81;5077221;27;45525;-66
2021/06/22 02:24:54;;;;;;;;;4.00;2.00;;;;;24.23;47.04;100475.44;5076832;27;47963;-65
2021/06/22 02:27:30;;;;;;;;;2.00;2.00;;;;;24.27;46.82;100476.03;5074313;28;63109;-60
2021/06/22 02:29:56;;;;;;;;;2.75;2.75;;;;;24.26;46.92;100464.59;5077057;28;45397;-57
2021/06/22 02:32:21;;;;;;;;;2.00;1.75;;;;;24.27;46.75;100471.59;5076190;27;61230;-63
2021/06/22 02:34:47;;;;;;;;;3.00;3.00;;;;;24.27;46.92;100462.78;5075575;28;46017;-58
2021/06/22 02:37:12;;;;;;;;;2.75;2.75;;;;;24.25;46.71;100465.56;5076902;27;45312;-60
2021/06/22 02:39:38;;;;;;;;;2.25;2.25;;;;;24.28;46.98;100464.47;5076504;27;45420;-54
2021/06/22 02:42:04;;;;;;;;;3.00;3.00;;;;;24.29;46.43;100463.53;5077267;27;45226;-48
2021/06/22 02:44:29;;;;;;;;;2.00;2.00;;;;;24.29;46.99;100467.03;5076484;27;47838;-51
2021/06/22 02:46:54;;;;;;;;;2.00;2.00;;;;;24.28;46.86;100462.69;5075747;27;65376;-50
2021/06/22 02:49:20;;;;;;;;;3.00;3.00;;;;;24.30;47.08;100471.38;5076130;27;58259;-51
2021/06/22 02:51:45;;;;;;;;;4.25;4.00;;;;;24.30;47.00;100473.16;5075819;27;64354;-48
2021/06/22 02:54:11;;;;;;;;;4.00;2.75;;;;;24.29;46.66;100476.75;5076489;27;46160;-53
2021/06/22 02:56:36;;;;;;;;;3.00;3.00;;;;;24.30;47.25;100479.31;5076794;27;45354;-52
2021/06/22 02:59:01;;;;;;;;;3.25;2.00;;;;;24.31;46.91;100475.66;5076090;27;53449;-49
2021/06/22 03:01:27;;;;;;;;;4.00;4.00;;;;;24.31;47.22;100475.66;5076158;27;45331;-47
2021/06/22 03:03:52;;;;;;;;;3.25;3.25;;;;;24.30;47.05;100484.59;5075418;27;67975;-48
2021/06/22 03:06:18;;;;;;;;;3.50;3.50;;;;;24.31;46.99;100480.13;5075718;27;59510;-50
2021/06/22 03:08:43;;;;;;;;;3.00;3.00;;;;;24.28;47.10;100475.06;5076493;27;45365;-52
2021/06/22 03:11:08;;;;;;;;;5.00;3.50;;;;;24.29;47.24;100479.41;5076170;27;56229;-48
2021/06/22 03:13:34;;;;;;;;;4.50;3.50;;;;;24.29;47.29;100468.81;5057141;28;72015;-51
2021/06/22 03:15:59;;;;;;;;;6.25;5.50;;;;;24.28;47.13;100473.28;5075752;27;59887;-51
2021/06/22 03:18:24;;;;;;;;;3.00;3.00;;;;;24.29;47.39;100474.97;5075495;27;65715;-63
2021/06/22 03:20:50;;;;;;;;;5.00;4.75;;;;;24.31;47.38;100478.31;5076395;27;45880;-50
2021/06/22 03:23:15;;;;;;;;;3.75;3.75;;;;;24.29;47.29;100480.28;5073965;28;72354;-50
2021/06/22 03:25:41;;;;;;;;;4.50;4.50;;;;;24.31;47.43;100475.66;5075346;27;63451;-54
2021/06/22 03:28:06;;;;;;;;;5.00;5.00;;;;;24.31;47.63;100473.03;5076440;27;45298;-48
2021/06/22 03:30:32;;;;;;;;;5.75;5.25;;;;;24.30;47.66;100471.38;5076148;27;45639;-51
2021/06/22 03:32:57;;;;;;;;;6.00;6.00;;;;;24.26;47.58;100469.03;5075899;27;45568;-53
2021/06/22 03:35:22;;;;;;;;;5.75;5.25;;;;;24.31;47.80;100473.03;5075513;27;57517;-48
2021/06/22 03:37:48;;;;;;;;;5.00;5.00;;;;;24.31;47.59;100480.97;5057750;28;53721;-46
2021/06/22 03:40:14;;;;;;;;;5.75;4.75;;;;;24.32;47.48;100485.31;5078946;27;59522;-49
2021/06/22 03:42:39;;;;;;;;;6.75;5.75;;;;;24.31;48.01;100494.22;5079819;27;45353;-52
2021/06/22 03:45:06;;;;;;;;;9.00;7.25;;;;;24.30;47.94;100484.59;5061192;28;45391;-49
2021/06/22 03:47:32;;;;;;;;;4.00;4.00;;;;;24.32;47.96;100484.47;5079583;27;45491;-48
2021/06/22 03:49:57;;;;;;;;;5.75;4.50;;;;;24.31;47.91;100488.91;5079629;27;45434;-51
2021/06/22 03:52:23;;;;;;;;;6.75;6.75;;;;;24.32;47.93;100482.66;5077222;28;64507;-49
2021/06/22 03:54:48;;;;;;;;;6.00;6.00;;;;;24.32;47.68;100485.31;5078605;27;63929;-49
2021/06/22 03:57:13;;;;;;;;;5.00;5.00;;;;;24.31;48.20;100488.91;5078693;27;60680;-51
2021/06/22 03:59:39;;;;;;;;;7.50;5.75;;;;;24.31;48.01;100494.22;5079708;27;45339;-50
2021/06/22 04:02:04;;;;;;;;;7.00;5.25;;;;;24.31;48.13;100494.22;5077124;27;65439;-49
2021/06/22 04:04:29;;;;;;;;;8.00;6.25;;;;;24.31;48.20;100504.81;5078145;27;72464;-55
2021/06/22 04:06:55;;;;;;;;;6.25;6.00;;;;;24.32;48.17;100501.19;5078786;27;54550;-49
2021/06/22 04:09:25;;;;;;;;;4.75;4.75;;;;;24.32;48.31;100511.78;5079357;27;45254;-47
2021/06/22 04:11:50;;;;;;;;;9.00;7.25;;;;;24.33;48.18;100523.25;5078954;27;46352;-49
2021/06/22 04:14:16;;;;;;;;;4.50;4.50;;;;;24.33;48.18;100521.44;5077744;28;45370;-49
2021/06/22 04:16:41;;;;;;;;;7.00;6.00;;;;;24.32;48.33;100522.38;5077629;27;56303;-46
2021/06/22 04:19:06;;;;;;;;;6.00;5.00;;;;;24.33;48.38;100518.78;5079160;27;45550;-49
2021/06/22 04:21:32;;;;;;;;;7.00;6.25;;;;;24.33;48.25;100524.06;5078676;27;46150;-56
2021/06/22 04:23:57;;;;;;;;;5.75;5.75;;;;;24.33;48.43;100512.66;5076555;28;68499;-50
2021/06/22 04:26:22;;;;;;;;;7.25;5.25;;;;;24.34;47.98;100523.13;5076806;27;61223;-49
2021/06/22 04:28:48;;;;;;;;;5.00;5.00;;;;;24.29;48.46;100516.47;5078023;27;61481;-66
2021/06/22 04:31:13;;;;;;;;;6.75;6.00;;;;;24.33;48.31;100529.38;5060879;28;46020;-64
2021/06/22 04:33:39;;;;;;;;;6.00;5.00;;;;;24.33;48.31;100517.94;5078928;28;45379;-53
2021/06/22 04:36:05;;;;;;;;;6.00;6.00;;;;;24.34;48.46;100517.00;5078715;27;45444;-53
2021/06/22 04:38:30;;;;;;;;;6.50;5.50;;;;;24.29;48.51;100512.06;5078580;27;45450;-54
2021/06/22 04:40:55;;;;;;;;;5.25;5.00;;;;;24.33;48.53;100521.44;5077621;27;70706;-48
2021/06/22 04:43:22;;;;;;;;;5.75;5.75;;;;;24.33;48.26;100524.06;5078145;27;51908;-49
2021/06/22 04:45:47;;;;;;;;;5.25;5.25;;;;;24.34;48.63;100528.41;5078610;27;45308;-50
2021/06/22 04:48:13;;;;;;;;;5.00;5.00;;;;;24.33;48.23;100521.44;5078306;27;57320;-49
2021/06/22 04:50:38;;;;;;;;;5.00;5.00;;;;;24.35;48.54;100527.44;5076096;27;67022;-63
2021/06/22 04:53:03;;;;;;;;;4.00;4.00;;;;;24.34;48.23;100520.47;5077372;27;69173;-63
2021/06/22 04:55:29;;;;;;;;;5.25;5.25;;;;;24.35;48.51;100527.44;5076761;28;52354;-63
2021/06/22 04:57:58;;;;;;;;;5.75;5.50;;;;;24.36;48.39;100525.66;5078660;27;45740;-63
2021/06/22 05:00:24;;;;;;;;;6.50;6.50;;;;;24.36;48.18;100531.78;5078050;27;45576;-63
2021/06/22 05:02:49;;;;;;;;;5.25;5.00;;;;;24.36;48.36;100538.91;5078164;27;45452;-57
2021/06/22 05:05:15;;;;;;;;;5.00;5.00;;;;;24.35;48.63;100531.91;5076562;28;61732;-52
2021/06/22 05:07:40;;;;;;;;;5.25;5.25;;;;;24.33;48.34;100528.53;5078726;27;45486;-59
2021/06/22 05:10:06;;;;;;;;;6.25;6.25;;;;;24.33;48.38;100533.84;5078036;27;45448;-58
2021/06/22 05:12:31;;;;;;;;;7.00;4.75;;;;;24.32;48.69;100532.97;5077960;27;45255;-60
2021/06/22 05:14:57;;;;;;;;;8.25;7.25;;;;;24.30;48.60;100532.28;5077441;27;58096;-58
2021/06/22 05:17:22;;;;;;;;;12.50;11.00;;;;;24.14;48.94;100505.25;5077333;27;61280;-59
2021/06/22 05:19:48;;;;;;;;;9.75;9.75;;;;;24.28;48.69;100530.69;5077844;27;46058;-56
2021/06/22 05:22:13;;;;;;;;;12.25;12.25;;;;;24.26;48.74;100533.47;5077653;27;61362;-63
2021/06/22 05:24:39;;;;;;;;;12.25;11.00;;;;;24.24;48.68;100530.06;5078194;27;45264;-56
2021/06/22 05:27:04;;;;;;;;;11.00;9.25;;;;;24.22;48.81;100542.59;5076837;28;45558;-52
2021/06/22 05:29:30;;;;;;;;;9.00;8.00;;;;;24.19;49.08;100537.53;5076619;28;46041;-61
2021/06/22 05:31:55;;;;;;;;;7.50;7.50;;;;;24.14;49.16;100545.84;5077976;27;45339;-52
2021/06/22 05:34:21;;;;;;;;;9.25;9.00;;;;;24.15;48.68;100542.22;5059788;28;45329;-51
2021/06/22 05:36:46;;;;;;;;;8.75;8.75;;;;;24.12;49.22;100542.47;5078533;27;45650;-53
2021/06/22 05:39:11;;;;;;;;;9.00;7.75;;;;;24.11;48.77;100545.19;5077299;27;51899;-49
2021/06/22 05:41:37;;;;;;;;;8.25;7.75;;;;;24.09;49.20;100543.50;5075326;28;69310;-54
2021/06/22 05:44:02;;;;;;;;;7.75;7.00;;;;;24.06;49.46;100549.06;5076695;27;67402;-51
2021/06/22 05:46:28;;;;;;;;;10.75;9.00;;;;;24.06;49.76;100551.72;5077656;27;45536;-49
2021/06/22 05:48:53;;;;;;;;;11.50;8.75;;;;;24.04;49.52;100550.97;5075599;28;62773;-48
2021/06/22 05:51:19;;;;;;;;;8.00;8.00;;;;;24.04;49.80;100560.69;5076098;28;45429;-48
2021/06/22 05:53:44;;;;;;;;;8.00;6.50;;;;;24.02;49.88;100557.34;5077976;27;45388;-58
2021/06/22 05:56:10;;;;;;;;;8.75;7.75;;;;;24.02;50.12;100563.47;5075999;27;50888;-55
2021/06/22 05:58:35;;;;;;;;;8.00;8.00;;;;;24.00;49.98;100560.09;5077097;27;49726;-56
2021/06/22 06:01:00;;;;;;;;;7.25;7.25;;;;;24.00;50.25;100561.91;5057815;28;49820;-58
2021/06/22 06:03:26;;;;;;;;;9.25;9.25;;;;;23.99;50.39;100569.00;5077054;27;49382;-64
2021/06/22 06:05:51;;;;;;;;;8.00;8.00;;;;;23.98;50.35;100572.59;5077459;27;45275;-56
2021/06/22 06:08:17;;;;;;;;;9.50;9.25;;;;;23.96;50.58;100571.88;5076149;27;47091;-58
2021/06/22 06:10:45;;;;;;;;;9.00;8.25;;;;;23.98;50.50;100579.69;5075433;28;59260;-60
2021/06/22 06:13:10;;;;;;;;;9.25;9.25;;;;;23.97;50.30;100570.06;5077279;27;45441;-65
2021/06/22 06:15:36;;;;;;;;;11.00;9.25;;;;;23.97;50.43;100580.66;5076875;27;51836;-64
2021/06/22 06:18:02;;;;;;;;;8.25;8.25;;;;;23.95;50.34;100583.44;5076917;27;45553;-56
2021/06/22 06:20:28;;;;;;;;;9.00;8.25;;;;;23.97;50.47;100585.94;5076937;27;45339;-63
2021/06/22 06:22:53;;;;;;;;;8.50;8.00;;;;;23.94;50.44;100581.72;5077002;27;45352;-51
2021/06/22 06:25:19;;;;;;;;;11.00;11.00;;;;;23.93;50.67;100588.78;5077112;27;45299;-55
2021/06/22 06:30:16;;;;;;;;;11.75;11.75;;;;;23.88;50.75;100587.44;5076723;27;45365;-55
2021/06/22 06:32:41;;;;;;;;;11.00;11.00;;;;;23.87;50.60;100585.75;5075782;28;45407;-62
2021/06/22 06:35:07;;;;;;;;;13.00;12.25;;;;;23.88;50.98;100593.59;5077034;27;45549;-63
2021/06/22 06:37:33;;;;;;;;;9.50;9.00;;;;;23.88;50.81;100588.28;5076169;27;45967;-59
2021/06/22 06:39:58;;;;;;;;;12.00;11.75;;;;;23.90;50.82;100585.53;5076310;27;48386;-52
2021/06/22 06:42:24;;;;;;;;;11.75;11.25;;;;;23.90;50.75;100594.31;5076708;27;45318;-55
2021/06/22 06:44:49;;;;;;;;;9.00;9.00;;;;;23.91;50.95;100588.06;5076199;27;65165;-54
2021/06/22 06:47:14;;;;;;;;;11.25;10.50;;;;;23.91;50.96;100587.22;5076552;27;45899;-60
2021/06/22 06:49:40;;;;;;;;;14.00;11.25;;;;;23.93;50.81;100593.25;5075253;28;45387;-53
2021/06/22 06:52:05;;;;;;;;;10.25;9.50;;;;;23.94;51.12;100592.28;5076866;27;45346;-59
2021/06/22 06:54:31;;;;;;;;;12.00;11.50;;;;;23.94;51.19;100593.13;5076816;27;45807;-57
2021/06/22 06:56:56;;;;;;;;;12.75;11.25;;;;;23.94;51.16;100589.66;5076367;27;46308;-59
2021/06/22 06:59:22;;;;;;;;;9.75;9.75;;;;;23.95;51.08;100599.31;5076383;27;45354;-58
2021/06/22 07:01:48;;;;;;;;;10.25;10.25;;;;;23.95;51.25;100599.31;5076849;27;45326;-58
2021/06/22 07:04:13;;;;;;;;;12.75;11.25;;;;;23.94;51.30;100603.72;5076659;27;45218;-53
2021/06/22 07:06:38;;;;;;;;;13.75;13.00;;;;;23.95;51.06;100604.59;5075789;27;64626;-52
2021/06/22 07:09:04;;;;;;;;;13.75;11.75;;;;;23.92;51.20;100602.97;5076427;27;45348;-55
2021/06/22 07:11:30;;;;;;;;;13.75;13.25;;;;;23.93;51.04;100609.97;5092068;27;45527;-63
2021/06/22 07:13:56;;;;;;;;;16.00;15.50;;;;;23.93;51.06;100617.06;5080216;27;45623;-54
2021/06/22 07:16:21;;;;;;;;;19.25;16.00;;;;;23.91;51.14;100605.75;5079970;27;46354;-49
2021/06/22 07:18:47;;;;;;;;;19.25;17.00;;;;;23.91;51.08;100616.34;5078733;27;45452;-59
2021/06/22 07:21:13;;;;;;;;;12.25;12.25;;;;;23.90;51.39;100617.28;5078490;27;45320;-51
2021/06/22 07:23:39;;;;;;;;;19.00;16.50;;;;;23.89;51.18;100616.44;5061909;28;45571;-51
2021/06/22 07:26:04;;;;;;;;;18.25;16.75;;;;;23.87;51.67;100622.78;5079543;27;45884;-61
2021/06/22 07:28:30;;;;;;;;;19.75;18.50;;;;;23.84;51.73;100612.47;5079703;27;45328;-59
2021/06/22 07:30:55;;;;;;;;;19.00;16.25;;;;;23.83;51.68;100618.69;5078092;28;55459;-54
2021/06/22 07:33:21;;;;;;;;;20.75;19.50;;;;;23.80;51.91;100610.97;5078882;28;45685;-58
2021/06/22 07:35:46;;;;;;;;;11.50;11.50;;;;;23.76;51.98;100611.19;5079362;27;45974;-57
2021/06/22 07:38:11;;;;;;;;;20.25;18.50;;;;;23.75;52.06;100620.13;5079281;27;45464;-51
2021/06/22 07:40:37;;;;;;;;;14.25;13.25;;;;;23.72;52.33;100617.69;5078330;27;45674;-49
2021/06/22 07:43:03;;;;;;;;;16.75;16.50;;;;;23.71;52.41;100609.84;5094307;27;45360;-57
2021/06/22 07:45:28;;;;;;;;;13.25;11.75;;;;;23.70;52.38;100614.28;5082581;27;59855;-50
2021/06/22 07:47:55;;;;;;;;;14.00;13.00;;;;;23.68;52.40;100616.19;5079295;27;45487;-58
2021/06/22 07:50:21;;;;;;;;;17.00;15.50;;;;;23.68;52.48;100608.25;5079819;27;45376;-54
2021/06/22 07:52:46;;;;;;;;;15.00;14.25;;;;;23.64;52.57;100612.13;5079597;27;45569;-54
2021/06/22 07:55:14;;;;;;;;;15.75;13.25;;;;;23.63;52.52;100616.53;5077673;28;45943;-57
2021/06/22 07:57:48;;;;;;;;;14.00;14.00;;;;;23.63;52.79;100626.28;5077895;28;45489;-53
2021/06/22 08:00:31;;;;;;;;;16.75;14.50;;;;;23.62;52.46;100633.38;5079168;28;45405;-56
2021/06/22 08:02:56;;;;;;;;;16.50;14.50;;;;;23.61;52.64;100631.66;5078985;27;45345;-54
2021/06/22 08:05:21;;;;;;;;;18.75;18.75;;;;;23.59;52.75;100635.41;5079022;27;46016;-51
2021/06/22 08:07:47;;;;;;;;;19.50;18.00;;;;;23.58;52.83;100641.63;5078972;27;45413;-51
2021/06/22 08:10:12;;;;;;;;;17.25;15.50;;;;;23.56;52.83;100636.47;5078379;27;62172;-50
2021/06/22 08:12:38;;;;;;;;;21.50;16.25;;;;;23.55;52.68;100645.34;5077756;28;45632;-50
2021/06/22 08:15:04;;;;;;;;;15.50;15.25;;;;;23.56;52.75;100652.34;5077450;28;46196;-52
2021/06/22 08:17:30;;;;;;;;;20.75;20.00;;;;;23.54;53.03;100648.09;5077392;28;45415;-54
2021/06/22 08:19:55;;;;;;;;;18.00;16.75;;;;;23.53;53.04;100649.91;5078839;27;45336;-56
2021/06/22 08:22:20;;;;;;;;;18.25;18.00;;;;;23.56;52.94;100651.47;5078677;27;52034;-58
2021/06/22 08:24:46;;;;;;;;;21.50;17.00;;;;;23.56;53.02;100654.97;5076492;27;45448;-53
2021/06/22 08:27:11;;;;;;;;;21.00;20.25;;;;;23.54;52.60;100650.72;5078463;27;45398;-53
2021/06/22 08:29:37;;;;;;;;;21.75;21.75;;;;;23.57;52.97;100653.16;5078496;27;45339;-55
2021/06/22 08:32:03;;;;;;;;;17.25;16.75;;;;;23.56;52.42;100646.19;5068797;27;45681;-54
2021/06/22 08:34:29;;;;;;;;;21.00;17.75;;;;;23.56;52.37;100654.97;5065587;27;45345;-50
2021/06/22 08:36:54;;;;;;;;;22.00;16.25;;;;;23.56;52.57;100651.47;5057840;28;45263;-53
2021/06/22 08:39:19;;;;;;;;;22.50;20.75;;;;;23.57;52.47;100653.16;5057073;28;58811;-54
2021/06/22 08:41:46;;;;;;;;;19.75;18.25;;;;;23.59;52.91;100652.09;5076719;28;45398;-49
2021/06/22 08:44:11;;;;;;;;;24.50;20.50;;;;;23.59;52.68;100656.56;5070315;28;46334;-54
2021/06/22 08:46:37;;;;;;;;;20.00;17.75;;;;;23.61;52.65;100654.66;5073039;27;45276;-50
2021/06/22 08:49:03;;;;;;;;;18.75;16.50;;;;;23.62;52.52;100649.25;5070528;28;45322;-53
2021/06/22 08:51:29;;;;;;;;;23.75;21.75;;;;;23.60;52.29;100647.66;5044273;28;45660;-51
2021/06/22 08:53:55;;;;;;;;;20.50;18.75;;;;;23.65;52.65;100657.91;5056684;28;46217;-51
2021/06/22 08:56:20;;;;;;;;;19.00;19.00;;;;;23.65;52.42;100656.09;5056651;28;45415;-49
2021/06/22 08:58:45;;;;;;;;;22.50;18.25;;;;;23.67;52.39;100658.66;5058060;28;45330;-52
2021/06/22 09:01:13;;;;;;;;;23.25;22.50;;;;;23.70;52.53;100664.56;5057462;28;45330;-53
2021/06/22 09:03:38;;;;;;;;;20.25;18.50;;;;;23.74;52.44;100659.91;5057648;28;46332;-51
2021/06/22 09:06:05;;;;;;;;;23.00;21.50;;;;;23.75;52.33;100651.88;5057289;28;45382;-52
2021/06/22 09:08:32;;;;;;;;;21.50;18.50;;;;;23.75;52.30;100651.00;5057879;28;45350;-64
2021/06/22 09:11:06;;;;;;;;;21.00;19.00;;;;;23.79;52.11;100655.13;5057814;28;45547;-51
2021/06/22 09:13:32;;;;;;;;;20.50;18.00;;;;;23.79;52.11;100657.78;5057097;28;46953;-55
2021/06/22 09:15:57;;;;;;;;;20.00;17.50;;;;;23.78;51.89;100664.03;5055823;28;45436;-56
2021/06/22 09:18:29;;;;;;;;;18.50;17.50;;;;;23.78;51.87;100664.03;5056613;28;45475;-59
2021/06/22 09:20:56;;;;;;;;;20.50;19.50;;;;;23.79;51.52;100668.38;5057851;28;45608;-54
2021/06/22 09:23:24;;;;;;;;;19.75;17.75;;;;;23.81;51.97;100670.88;5057681;28;46093;-56
2021/06/22 09:25:49;;;;;;;;;16.75;16.75;;;;;23.83;51.60;100676.94;5058044;28;45419;-60
2021/06/22 09:28:16;;;;;;;;;19.75;18.25;;;;;23.85;51.64;100675.03;5057641;28;45347;-54
2021/06/22 09:30:46;;;;;;;;;15.75;15.75;;;;;23.86;51.78;100674.91;5057781;28;45516;-59
2021/06/22 09:33:26;;;;;;;;;22.50;19.00;;;;;23.87;51.27;100670.44;5057327;28;46357;-62
2021/06/22 09:36:05;;;;;;;;;17.00;17.00;;;;;23.86;51.48;100664.31;5057778;28;45252;-62
2021/06/22 09:38:36;;;;;;;;;20.25;17.25;;;;;23.88;51.45;100667.69;5057307;28;45334;-57
2021/06/22 09:41:08;;;;;;;;;19.75;18.50;;;;;23.91;51.42;100682.50;5057549;28;45277;-67
2021/06/22 09:43:47;;;;;;;;;19.00;17.75;;;;;23.91;51.11;100661.31;5056954;28;46481;-60
2021/06/22 09:46:13;;;;;;;;;16.25;16.25;;;;;23.94;51.26;100663.75;5057204;28;45704;-54
2021/06/22 09:48:42;;;;;;;;;20.00;16.25;;;;;23.95;51.46;100676.06;5057246;28;45217;-52
2021/06/22 09:51:08;;;;;;;;;18.75;14.50;;;;;23.96;51.32;100675.13;5057396;28;45422;-65
2021/06/22 09:53:34;;;;;;;;;17.50;14.50;;;;;23.97;50.92;100687.41;5056931;28;46196;-67
2021/06/22 09:56:00;;;;;;;;;16.50;16.00;;;;;23.96;51.31;100684.84;5056878;28;45454;-67
2021/06/22 09:58:42;;;;;;;;;17.25;16.75;;;;;23.97;51.17;100695.34;5057130;28;45305;-59
2021/06/22 10:01:31;;;;;;;;;16.25;16.00;;;;;23.97;51.08;100695.34;5055763;28;45382;-52
2021/06/22 10:03:59;;;;;;;;;15.25;14.75;;;;;23.96;51.02;100701.59;5056821;28;47056;-52
2021/06/22 10:06:31;;;;;;;;;19.25;18.75;;;;;23.95;50.63;100705.19;5057106;28;45389;-50
2021/06/22 10:08:57;;;;;;;;;16.25;15.00;;;;;23.94;50.84;100703.47;5055914;28;45455;-57
2021/06/22 10:11:32;;;;;;;;;17.50;16.50;;;;;23.97;50.87;100707.72;5057565;28;45312;-55
2021/06/22 10:13:58;;;;;;;;;17.25;16.00;;;;;23.96;50.60;100704.25;5056630;28;46344;-62
2021/06/22 10:16:26;;;;;;;;;17.75;16.00;;;;;23.96;50.58;100709.53;5057179;28;45436;-49
2021/06/22 10:18:52;;;;;;;;;14.75;14.75;;;;;23.96;50.34;100724.56;5057037;28;45173;-52
2021/06/22 10:21:17;;;;;;;;;14.00;14.00;;;;;23.95;50.48;100721.06;5055655;28;45712;-54
2021/06/22 10:23:43;;;;;;;;;14.25;14.25;;;;;23.93;50.80;100726.44;5056582;28;46012;-63
2021/06/22 10:26:08;;;;;;;;;17.25;13.75;;;;;23.92;50.65;100731.84;5038474;28;45885;-53
2021/06/22 10:28:34;;;;;;;;;15.75;14.25;;;;;23.92;50.38;100730.03;5055348;28;45382;-52
2021/06/22 10:30:59;;;;;;;;;13.25;13.25;;;;;23.94;50.45;100738.72;5056999;28;45417;-53
2021/06/22 10:33:24;;;;;;;;;10.75;10.75;;;;;23.94;50.47;100740.53;5055338;28;45508;-55
2021/06/22 10:35:50;;;;;;;;;7.75;7.75;;;;;23.94;50.26;100749.28;5054637;28;59873;-49
2021/06/22 10:38:16;;;;;;;;;11.25;11.25;;;;;23.93;50.56;100749.41;5021185;28;55153;-54
2021/06/22 10:40:41;;;;;;;;;10.50;10.50;;;;;23.93;50.81;100766.13;5037869;28;64531;-52
2021/06/22 10:43:07;;;;;;;;;10.75;10.75;;;;;23.91;50.71;100767.19;5038309;28;46306;-54
2021/06/22 10:45:32;;;;;;;;;12.75;10.50;;;;;23.92;50.62;100771.53;5055069;28;45328;-50
2021/06/22 10:47:59;;;;;;;;;14.50;11.25;;;;;23.91;50.68;100780.44;5054144;28;45290;-50
2021/06/22 10:50:25;;;;;;;;;10.50;10.00;;;;;23.91;51.07;100786.59;5055690;28;45348;-56
2021/06/22 10:52:54;;;;;;;;;13.25;12.25;;;;;23.93;51.21;100791.78;5054825;28;47646;-56
2021/06/22 10:55:55;;;;;;;;;10.00;10.00;;;;;23.92;51.17;100790.06;5055063;28;45369;-52
2021/06/22 10:58:21;;;;;;;;;9.75;9.75;;;;;23.91;51.04;100798.97;5022524;28;45476;-50
2021/06/22 11:00:52;;;;;;;;;10.50;9.50;;;;;23.93;51.59;100797.06;5055822;28;53328;-58
2021/06/22 11:03:20;;;;;;;;;12.50;11.00;;;;;23.92;51.41;100800.66;5056021;28;46576;-56
2021/06/22 11:05:45;;;;;;;;;10.25;10.25;;;;;23.92;51.75;100800.66;5054707;28;45790;-56
2021/06/22 11:08:14;;;;;;;;;13.00;11.00;;;;;23.91;51.62;100813.06;5054927;28;45264;-49
2021/06/22 11:10:40;;;;;;;;;9.25;9.25;;;;;23.90;51.65;100813.16;5056377;28;45374;-58
2021/06/22 11:13:05;;;;;;;;;9.75;9.25;;;;;23.90;51.58;100819.31;5054464;28;47128;-49
2021/06/22 11:15:53;;;;;;;;;7.25;7.00;;;;;23.90;51.83;100821.09;5055956;28;45461;-49
2021/06/22 11:18:18;;;;;;;;;7.75;7.75;;;;;23.90;51.80;100821.97;5055938;28;45415;-55